createdAt,value
2023-03-28T00:01:15.537Z,70.00
2023-03-28T00:03:46.751Z,70.11
2023-03-28T00:06:19.261Z,70.32
2023-03-28T00:08:58.322Z,70.49
2023-03-28T00:11:34.112Z,70.77
2023-03-28T00:14:03.038Z,70.97
2023-03-28T00:16:39.737Z,71.41
2023-03-28T00:19:11.893Z,71.64
2023-03-28T00:21:41.669Z,71.96
2023-03-28T00:24:15.109Z,72.15
2023-03-28T00:26:44.250Z,72.46
2023-03-28T00:29:21.422Z,72.69
2023-03-28T00:31:52.373Z,72.92
2023-03-28T00:34:20.605Z,72.93
2023-03-28T00:36:50.894Z,73.26
2023-03-28T00:39:19.963Z,73.36
2023-03-28T00:41:49.605Z,73.57
2023-03-28T00:44:49.213Z,73.82
2023-03-28T00:47:42.020Z,74.18
2023-03-28T00:50:14.342Z,74.54
2023-03-28T00:52:44.775Z,74.70
2023-03-28T00:55:17.534Z,74.90
2023-03-28T00:57:55.938Z,74.88
2023-03-28T01:00:24.492Z,75.08
2023-03-28T01:02:56.505Z,75.09
2023-03-28T01:05:32.844Z,75.11
2023-03-28T01:08:13.207Z,75.24
2023-03-28T01:10:42.300Z,75.29
2023-03-28T01:13:18.641Z,75.49
2023-03-28T01:15:54.447Z,75.69
2023-03-28T01:18:24.344Z,75.99
2023-03-28T01:21:02.343Z,76.29
2023-03-28T01:23:50.033Z,76.43
2023-03-28T01:26:51.094Z,76.74
2023-03-28T01:29:24.528Z,76.88
2023-03-28T01:32:00.328Z,77.17
2023-03-28T01:35:21.096Z,77.41
2023-03-28T01:38:01.615Z,77.72
2023-03-28T01:40:48.789Z,78.07
2023-03-28T01:43:32.943Z,78.24
2023-03-28T01:46:07.512Z,78.43
2023-03-28T01:49:08.927Z,78.65
2023-03-28T01:51:47.775Z,78.60
2023-03-28T01:54:30.536Z,78.55
2023-03-28T01:57:26.061Z,78.57
2023-03-28T02:00:15.939Z,78.46
2023-03-28T02:03:06.887Z,78.49
2023-03-28T02:05:39.485Z,78.53
2023-03-28T02:08:11.244Z,78.52
2023-03-28T02:10:49.900Z,78.61
2023-03-28T02:14:00.526Z,78.60
2023-03-28T02:16:54.458Z,78.42
2023-03-28T02:19:40.130Z,78.42
2023-03-28T02:22:25.259Z,78.26
2023-03-28T02:25:09.072Z,78.28
2023-03-28T02:28:05.704Z,78.30
2023-03-28T02:30:53.390Z,78.35
2023-03-28T02:33:53.202Z,78.41
2023-03-28T02:36:24.482Z,78.40
2023-03-28T02:39:15.027Z,78.42
2023-03-28T02:41:49.140Z,78.28
2023-03-28T02:44:23.075Z,78.29
2023-03-28T02:47:34.331Z,78.22
2023-03-28T02:50:19.070Z,77.98
2023-03-28T02:53:06.065Z,77.94
2023-03-28T02:55:38.645Z,78.10
2023-03-28T02:58:29.616Z,78.19
2023-03-28T03:00:57.826Z,78.11
2023-03-28T03:03:27.505Z,78.18
2023-03-28T03:05:58.590Z,78.21
2023-03-28T03:08:28.077Z,77.98
2023-03-28T03:10:57.278Z,77.87
2023-03-28T03:13:26.147Z,77.80
2023-03-28T03:15:54.798Z,77.75
2023-03-28T03:18:26.439Z,77.73
2023-03-28T03:20:55.650Z,77.70
2023-03-28T03:23:27.808Z,77.60
2023-03-28T03:25:58.463Z,77.63
2023-03-28T03:28:38.133Z,77.62
2023-03-28T03:31:07.271Z,77.64
2023-03-28T03:33:47.793Z,77.41
2023-03-28T03:36:19.106Z,77.25
2023-03-28T03:38:48.184Z,77.28
2023-03-28T03:41:21.179Z,77.33
2023-03-28T03:44:29.820Z,77.33
2023-03-28T03:46:57.366Z,77.27
2023-03-28T03:49:26.077Z,77.37
2023-03-28T03:51:53.438Z,77.17
2023-03-28T03:54:21.399Z,77.10
2023-03-28T03:56:49.545Z,77.03
2023-03-28T03:59:16.764Z,77.03
2023-03-28T04:01:55.396Z,77.01
2023-03-28T04:04:47.261Z,76.99
2023-03-28T04:07:25.926Z,77.06
2023-03-28T04:09:54.889Z,77.31
2023-03-28T04:12:25.269Z,77.48
2023-03-28T04:14:55.212Z,77.61
2023-03-28T04:17:37.150Z,77.67
2023-03-28T04:20:11.642Z,77.72
2023-03-28T04:22:48.030Z,77.86
2023-03-28T04:25:17.405Z,77.98
2023-03-28T04:27:53.434Z,78.14
2023-03-28T04:30:21.819Z,78.13
2023-03-28T04:33:08.243Z,78.15
2023-03-28T04:35:39.249Z,78.32
2023-03-28T04:38:07.624Z,78.18
2023-03-28T04:40:39.220Z,77.89
2023-03-28T04:43:19.797Z,77.61
2023-03-28T04:45:53.326Z,77.44
2023-03-28T04:48:22.611Z,77.30
2023-03-28T04:50:49.831Z,76.94
2023-03-28T04:53:16.944Z,76.39
2023-03-28T04:56:05.215Z,76.02
2023-03-28T04:58:36.357Z,76.04
2023-03-28T05:01:05.330Z,76.00
2023-03-28T05:03:58.492Z,75.77
2023-03-28T05:06:26.345Z,74.43
2023-03-28T05:08:54.200Z,71.89
2023-03-28T05:11:24.656Z,69.59
2023-03-28T05:13:52.081Z,68.76
2023-03-28T05:16:32.826Z,68.72
2023-03-28T05:19:20.407Z,68.75
2023-03-28T05:21:55.876Z,69.07
2023-03-28T05:24:23.329Z,69.38
2023-03-28T05:26:51.735Z,70.08
2023-03-28T05:29:23.581Z,70.41
2023-03-28T05:31:53.224Z,70.10
2023-03-28T05:34:25.624Z,69.39
2023-03-28T05:36:52.716Z,68.36
2023-03-28T05:39:28.254Z,67.72
2023-03-28T05:42:04.061Z,66.29
2023-03-28T05:44:35.454Z,65.02
2023-03-28T05:47:25.589Z,64.18
2023-03-28T05:49:54.833Z,61.80
2023-03-28T05:52:22.888Z,60.15
2023-03-28T05:54:52.238Z,58.85
2023-03-28T05:57:21.764Z,57.17
2023-03-28T05:59:49.175Z,55.89
2023-03-28T06:02:24.596Z,53.82
2023-03-28T06:04:58.457Z,52.56
2023-03-28T06:07:39.421Z,52.14
2023-03-28T06:10:11.242Z,49.80
2023-03-28T06:12:39.397Z,49.28
2023-03-28T06:15:07.704Z,50.24
2023-03-28T06:17:43.202Z,51.35
2023-03-28T06:20:10.870Z,52.14
2023-03-28T06:22:39.077Z,52.83
2023-03-28T06:25:13.140Z,53.58
2023-03-28T06:27:41.660Z,54.55
2023-03-28T06:30:10.259Z,55.45
2023-03-28T06:32:44.405Z,56.60
2023-03-28T06:35:14.660Z,57.45
2023-03-28T06:37:46.201Z,58.08
2023-03-28T06:40:17.771Z,58.81
2023-03-28T06:42:45.742Z,59.14
2023-03-28T06:45:22.008Z,59.91
2023-03-28T06:47:55.120Z,60.39
2023-03-28T06:50:29.674Z,60.30
2023-03-28T06:53:10.630Z,59.76
2023-03-28T06:56:01.973Z,60.05
2023-03-28T07:02:33.329Z,61.06
2023-03-28T07:05:11.409Z,61.91
2023-03-28T07:10:58.149Z,63.41
2023-03-28T07:13:36.070Z,64.41
2023-03-28T07:16:07.641Z,65.04
2023-03-28T07:18:35.231Z,65.28
2023-03-28T07:21:09.217Z,65.67
2023-03-28T07:23:44.750Z,66.12
2023-03-28T07:26:16.181Z,66.58
2023-03-28T07:28:44.298Z,66.79
2023-03-28T07:31:12.386Z,67.10
2023-03-28T07:33:41.941Z,67.40
2023-03-28T07:36:16.126Z,67.56
2023-03-28T07:38:48.617Z,67.63
2023-03-28T07:41:17.472Z,67.66
2023-03-28T07:43:44.881Z,67.72
2023-03-28T07:46:13.801Z,67.78
2023-03-28T07:48:41.469Z,67.92
2023-03-28T07:51:11.007Z,68.10
2023-03-28T07:53:40.226Z,68.08
2023-03-28T07:56:14.014Z,68.11
2023-03-28T07:59:03.906Z,67.94
2023-03-28T08:01:32.766Z,68.21
2023-03-28T08:04:04.342Z,68.39
2023-03-28T08:07:04.533Z,68.56
2023-03-28T08:09:31.914Z,68.65
2023-03-28T08:12:21.286Z,68.59
2023-03-28T08:15:08.968Z,68.78
2023-03-28T08:17:36.215Z,68.96
2023-03-28T08:20:08.843Z,69.04
2023-03-28T08:22:56.176Z,69.16
2023-03-28T08:25:47.296Z,69.39
2023-03-28T08:28:18.334Z,69.49
2023-03-28T08:30:46.569Z,69.61
2023-03-28T08:33:14.245Z,69.82
2023-03-28T08:35:44.049Z,70.01
2023-03-28T08:38:18.215Z,70.38
2023-03-28T08:41:09.394Z,70.63
2023-03-28T08:44:18.281Z,70.86
2023-03-28T08:46:46.596Z,71.17
2023-03-28T08:49:16.131Z,71.16
2023-03-28T08:51:52.867Z,70.35
2023-03-28T08:54:21.136Z,70.12
2023-03-28T08:56:53.344Z,70.26
2023-03-28T08:59:30.419Z,70.45
2023-03-28T09:02:26.399Z,70.47
2023-03-28T09:04:56.567Z,70.34
2023-03-28T09:07:34.756Z,70.40
2023-03-28T09:10:18.634Z,70.49
2023-03-28T09:13:49.741Z,70.43
2023-03-28T09:16:35.852Z,70.53
2023-03-28T09:19:21.448Z,70.61
2023-03-28T09:22:35.797Z,70.58
2023-03-28T09:25:37.858Z,71.30
2023-03-28T09:28:31.216Z,71.75
2023-03-28T09:31:01.621Z,72.04
2023-03-28T09:33:37.615Z,72.60
2023-03-28T09:36:13.031Z,72.90
2023-03-28T09:38:45.622Z,73.30
2023-03-28T09:41:19.604Z,73.85
2023-03-28T09:43:52.933Z,74.32
2023-03-28T09:46:58.057Z,74.84
2023-03-28T09:49:40.373Z,75.10
2023-03-28T09:53:45.500Z,75.48
2023-03-28T09:56:34.618Z,75.46
2023-03-28T09:59:26.218Z,75.50
2023-03-28T10:01:57.946Z,74.67
2023-03-28T10:04:29.933Z,74.40
2023-03-28T10:07:42.853Z,74.32
2023-03-28T10:10:31.270Z,74.20
2023-03-28T10:13:16.647Z,74.08
2023-03-28T10:15:51.068Z,73.74
2023-03-28T10:18:47.456Z,73.46
2023-03-28T10:21:25.104Z,73.37
2023-03-28T10:24:04.242Z,73.49
2023-03-28T10:26:32.931Z,73.53
2023-03-28T10:29:05.515Z,73.91
2023-03-28T10:31:34.680Z,74.13
2023-03-28T10:34:35.252Z,74.49
2023-03-28T10:40:19.493Z,74.88
2023-03-28T10:43:23.082Z,74.94
2023-03-28T10:46:23.818Z,75.11
2023-03-28T10:49:30.046Z,75.48
2023-03-28T10:52:38.138Z,75.75
2023-03-28T10:55:21.205Z,76.17
2023-03-28T10:58:53.701Z,76.26
2023-03-28T11:01:48.394Z,76.52
2023-03-28T11:04:39.149Z,76.66
2023-03-28T11:07:49.758Z,76.34
2023-03-28T11:10:30.793Z,76.05
2023-03-28T11:13:43.243Z,75.33
2023-03-28T11:17:25.615Z,74.50
2023-03-28T11:20:33.939Z,74.49
2023-03-28T11:23:38.296Z,74.97
2023-03-28T11:27:49.415Z,74.73
2023-03-28T11:30:37.568Z,74.68
2023-03-28T11:33:48.658Z,75.02
2023-03-28T11:36:43.920Z,75.35
2023-03-28T11:42:42.933Z,75.97
2023-03-28T11:45:11.009Z,76.23
2023-03-28T11:47:41.464Z,76.37
2023-03-28T11:50:18.402Z,76.45
2023-03-28T11:53:22.487Z,75.69
2023-03-28T11:56:32.717Z,74.87
2023-03-28T11:59:30.587Z,74.66
2023-03-28T12:02:04.986Z,74.76
2023-03-28T12:04:47.764Z,75.12
2023-03-28T12:07:38.508Z,75.53
2023-03-28T12:10:28.914Z,76.04
2023-03-28T12:13:22.544Z,76.47
2023-03-28T12:16:01.976Z,76.80
2023-03-28T12:18:36.573Z,76.92
2023-03-28T12:21:14.385Z,77.17
2023-03-28T12:24:16.127Z,77.65
2023-03-28T12:27:08.938Z,78.02
2023-03-28T12:29:51.096Z,78.30
2023-03-28T12:32:43.177Z,78.40
2023-03-28T12:35:32.314Z,78.38
2023-03-28T12:38:14.641Z,78.80
2023-03-28T12:41:05.176Z,79.32
2023-03-28T12:43:45.603Z,79.83
2023-03-28T12:46:19.057Z,80.67
2023-03-28T12:48:55.890Z,81.92
2023-03-28T12:51:47.973Z,83.61
2023-03-28T12:54:16.877Z,84.54
2023-03-28T12:56:58.532Z,85.79
2023-03-28T13:00:06.261Z,86.91
2023-03-28T13:03:05.939Z,88.33
2023-03-28T13:05:39.431Z,88.85
2023-03-28T13:08:30.225Z,89.22
2023-03-28T13:11:28.133Z,89.52
2023-03-28T13:13:59.043Z,89.55
2023-03-28T13:16:46.567Z,89.43
2023-03-28T13:19:16.448Z,89.48
2023-03-28T13:21:47.421Z,89.41
2023-03-28T13:24:35.854Z,89.44
2023-03-28T13:27:12.356Z,89.37
2023-03-28T13:29:50.442Z,89.59
2023-03-28T13:32:23.095Z,89.87
2023-03-28T13:34:56.525Z,89.88
2023-03-28T13:37:38.109Z,90.03
2023-03-28T13:40:39.753Z,89.99
2023-03-28T13:43:24.439Z,89.70
2023-03-28T13:45:54.857Z,89.27
2023-03-28T13:48:25.097Z,89.20
2023-03-28T13:50:53.095Z,88.96
2023-03-28T13:53:37.456Z,89.18
2023-03-28T13:56:30.117Z,89.21
2023-03-28T13:59:01.492Z,89.32
2023-03-28T14:01:42.096Z,89.30
2023-03-28T14:04:12.160Z,89.31
2023-03-28T14:06:40.560Z,89.40
2023-03-28T14:09:21.164Z,89.49
2023-03-28T14:11:48.755Z,89.58
2023-03-28T14:14:27.195Z,89.55
2023-03-28T14:16:57.717Z,89.33
2023-03-28T14:19:33.595Z,89.35
2023-03-28T14:22:21.516Z,89.41
2023-03-28T14:24:51.391Z,89.41
2023-03-28T14:27:38.484Z,89.45
2023-03-28T14:30:31.885Z,89.53
2023-03-28T14:33:08.417Z,89.68
2023-03-28T14:35:36.607Z,89.74
2023-03-28T14:38:05.717Z,90.25
2023-03-28T14:41:28.709Z,90.65
2023-03-28T14:43:57.438Z,90.90
2023-03-28T14:46:29.697Z,91.37
2023-03-28T14:48:59.192Z,91.87
2023-03-28T14:51:27.705Z,92.26
2023-03-28T14:53:56.638Z,92.76
2023-03-28T14:56:26.919Z,93.28
2023-03-28T14:58:59.745Z,93.54
2023-03-28T15:01:27.652Z,93.51
2023-03-28T15:04:07.834Z,93.55
2023-03-28T15:06:38.817Z,93.71
2023-03-28T15:09:29.821Z,93.86
2023-03-28T15:12:07.717Z,94.04
2023-03-28T15:14:42.037Z,93.99
2023-03-28T15:17:27.610Z,93.98
2023-03-28T15:19:55.515Z,94.08
2023-03-28T15:22:27.484Z,94.13
2023-03-28T15:24:58.966Z,94.08
2023-03-28T15:27:31.165Z,93.96
2023-03-28T15:29:59.601Z,94.07
2023-03-28T15:32:30.411Z,94.14
2023-03-28T15:35:04.158Z,94.19
2023-03-28T15:37:43.247Z,94.23
2023-03-28T15:40:37.608Z,94.18
2023-03-28T15:43:04.661Z,94.38
2023-03-28T15:45:42.275Z,94.37
2023-03-28T15:48:14.374Z,94.51
2023-03-28T15:50:44.742Z,94.60
2023-03-28T15:53:14.136Z,94.62
2023-03-28T15:55:42.103Z,94.73
2023-03-28T15:58:15.463Z,95.09
2023-03-28T16:00:49.633Z,95.36
2023-03-28T16:03:22.578Z,95.72
2023-03-28T16:05:59.685Z,95.85
2023-03-28T16:08:35.190Z,95.54
2023-03-28T16:11:04.595Z,94.82
2023-03-28T16:13:35.604Z,94.30
2023-03-28T16:16:34.502Z,94.02
2023-03-28T16:19:30.077Z,94.06
2023-03-28T16:22:04.599Z,93.96
2023-03-28T16:24:34.232Z,93.96
2023-03-28T16:27:01.674Z,93.89
2023-03-28T16:29:30.443Z,93.76
2023-03-28T16:32:02.937Z,93.65
2023-03-28T16:34:30.749Z,93.63
2023-03-28T16:36:57.875Z,93.70
2023-03-28T16:39:27.132Z,92.85
2023-03-28T16:41:54.129Z,92.02
2023-03-28T16:44:21.803Z,91.64
2023-03-28T16:46:50.820Z,90.44
2023-03-28T16:49:19.285Z,89.35
2023-03-28T16:51:46.752Z,88.37
2023-03-28T16:54:13.626Z,87.48
2023-03-28T16:56:42.123Z,86.77
2023-03-28T16:59:09.854Z,86.65
2023-03-28T17:01:40.816Z,86.66
2023-03-28T17:04:08.550Z,86.94
2023-03-28T17:06:35.579Z,87.09
2023-03-28T17:09:04.805Z,87.30
2023-03-28T17:11:34.284Z,87.38
2023-03-28T17:14:01.986Z,87.40
2023-03-28T17:16:29.256Z,87.44
2023-03-28T17:18:56.225Z,87.60
2023-03-28T17:21:31.133Z,87.63
2023-03-28T17:24:01.976Z,87.67
2023-03-28T17:26:29.163Z,87.80
2023-03-28T17:29:00.132Z,87.79
2023-03-28T17:31:27.449Z,87.35
2023-03-28T17:33:54.771Z,87.07
2023-03-28T17:36:26.663Z,87.03
2023-03-28T17:38:55.334Z,87.16
2023-03-28T17:41:22.463Z,86.85
2023-03-28T17:43:51.273Z,86.48
2023-03-28T17:46:20.990Z,86.52
2023-03-28T17:48:48.497Z,86.48
2023-03-28T17:51:18.986Z,86.42
2023-03-28T17:53:46.486Z,86.73
2023-03-28T17:56:20.982Z,87.15
2023-03-28T17:58:48.282Z,87.55
2023-03-28T18:01:16.674Z,88.14
2023-03-28T18:03:45.458Z,88.57
2023-03-28T18:06:56.272Z,89.07
2023-03-28T18:09:26.793Z,89.61
2023-03-28T18:12:08.474Z,89.71
2023-03-28T18:14:38.281Z,90.20
2023-03-28T18:17:05.663Z,90.34
2023-03-28T18:19:33.243Z,90.64
2023-03-28T18:22:02.708Z,90.45
2023-03-28T18:24:40.043Z,90.36
2023-03-28T18:27:11.319Z,90.01
2023-03-28T18:29:39.673Z,89.79
2023-03-28T18:32:08.584Z,89.90
2023-03-28T18:34:36.166Z,90.09
2023-03-28T18:37:05.191Z,90.01
2023-03-28T18:39:32.968Z,90.12
2023-03-28T18:42:11.887Z,90.24
2023-03-28T18:44:40.527Z,90.35
2023-03-28T18:47:07.458Z,90.35
2023-03-28T18:49:37.588Z,90.41
2023-03-28T18:52:04.549Z,90.25
2023-03-28T18:54:33.623Z,90.19
2023-03-28T18:57:01.245Z,90.20
2023-03-28T18:59:34.749Z,89.95
2023-03-28T19:02:04.400Z,90.06
2023-03-28T19:04:31.882Z,90.28
2023-03-28T19:06:58.919Z,90.16
2023-03-28T19:09:25.839Z,90.46
2023-03-28T19:11:54.434Z,90.71
2023-03-28T19:14:26.500Z,90.52
2023-03-28T19:16:55.273Z,90.51
2023-03-28T19:19:23.801Z,89.96
2023-03-28T19:21:54.603Z,89.89
2023-03-28T19:24:22.972Z,89.87
2023-03-28T19:26:50.480Z,90.04
2023-03-28T19:29:19.889Z,90.11
2023-03-28T19:31:47.020Z,89.83
2023-03-28T19:34:15.578Z,89.98
2023-03-28T19:36:43.327Z,89.81
2023-03-28T19:39:10.509Z,89.78
2023-03-28T19:41:38.065Z,89.30
2023-03-28T19:44:05.129Z,89.10
2023-03-28T19:46:34.685Z,88.87
2023-03-28T19:49:05.918Z,88.88
2023-03-28T19:51:33.840Z,88.88
2023-03-28T19:54:01.554Z,88.39
2023-03-28T19:56:28.829Z,87.93
2023-03-28T19:58:56.395Z,87.75
2023-03-28T20:01:23.352Z,87.51
2023-03-28T20:03:55.998Z,87.11
2023-03-28T20:06:27.179Z,87.30
2023-03-28T20:08:59.195Z,87.03
2023-03-28T20:11:32.878Z,86.95
2023-03-28T20:14:05.889Z,86.59
2023-03-28T20:16:42.147Z,86.14
2023-03-28T20:19:11.268Z,85.89
2023-03-28T20:21:41.447Z,85.99
2023-03-28T20:24:21.666Z,85.79
2023-03-28T20:27:35.305Z,85.22
2023-03-28T20:30:05.803Z,85.15
2023-03-28T20:32:57.293Z,85.02
2023-03-28T20:35:41.291Z,85.22
2023-03-28T20:38:15.017Z,84.98
2023-03-28T20:40:45.467Z,84.86
2023-03-28T20:43:19.774Z,84.55
2023-03-28T20:45:53.464Z,83.96
2023-03-28T20:48:36.632Z,83.62
2023-03-28T20:51:15.581Z,82.77
2023-03-28T20:53:49.817Z,82.67
2023-03-28T20:56:21.433Z,82.36
2023-03-28T20:58:57.074Z,82.25
2023-03-28T21:01:39.989Z,82.12
2023-03-28T21:04:31.312Z,82.31
2023-03-28T21:07:03.638Z,82.51
2023-03-28T21:09:38.572Z,82.74
2023-03-28T21:12:14.208Z,83.05
2023-03-28T21:14:43.038Z,82.81
2023-03-28T21:17:17.497Z,82.49
2023-03-28T21:19:45.910Z,82.42
2023-03-28T21:22:16.837Z,82.08
2023-03-28T21:24:45.362Z,82.12
2023-03-28T21:27:18.957Z,82.09
2023-03-28T21:29:46.285Z,82.00
2023-03-28T21:32:14.076Z,82.16
2023-03-28T21:34:44.511Z,82.08
2023-03-28T21:37:11.938Z,81.97
2023-03-28T21:39:39.197Z,81.65
2023-03-28T21:42:07.425Z,81.64
2023-03-28T21:44:34.813Z,81.61
2023-03-28T21:47:01.974Z,81.35
2023-03-28T21:49:30.114Z,81.31
2023-03-28T21:51:57.160Z,81.10
2023-03-28T21:54:25.852Z,81.01
2023-03-28T21:56:55.520Z,80.83
2023-03-28T21:59:23.588Z,81.02
2023-03-28T22:01:52.945Z,81.47
2023-03-28T22:04:20.176Z,81.75
2023-03-28T22:06:47.453Z,81.69
2023-03-28T22:09:14.523Z,81.83
2023-03-28T22:11:43.218Z,81.68
2023-03-28T22:14:14.262Z,81.57
2023-03-28T22:16:43.340Z,81.34
2023-03-28T22:19:14.084Z,81.11
2023-03-28T22:21:44.209Z,81.19
2023-03-28T22:24:12.448Z,81.24
2023-03-28T22:26:45.759Z,81.11
2023-03-28T22:29:12.897Z,81.32
2023-03-28T22:31:41.253Z,80.93
2023-03-28T22:34:11.616Z,80.79
2023-03-28T22:36:38.573Z,80.39
2023-03-28T22:39:11.743Z,80.12
2023-03-28T22:41:44.532Z,80.17
2023-03-28T22:44:12.591Z,80.18
2023-03-28T22:46:42.270Z,80.40
2023-03-28T22:49:09.779Z,80.27
2023-03-28T22:51:46.320Z,80.35
2023-03-28T22:57:06.642Z,80.42
2023-03-28T22:59:35.708Z,80.81
2023-03-28T23:02:02.901Z,80.61
2023-03-28T23:04:32.645Z,80.35
2023-03-28T23:07:00.140Z,80.34
2023-03-28T23:09:28.003Z,80.25
2023-03-28T23:12:01.922Z,80.14
2023-03-28T23:14:30.533Z,79.99
2023-03-28T23:17:01.656Z,79.72
2023-03-28T23:19:31.515Z,79.77
2023-03-28T23:21:58.837Z,79.74
2023-03-28T23:24:27.271Z,80.05
2023-03-28T23:26:55.130Z,80.12
2023-03-28T23:29:22.840Z,80.22
2023-03-28T23:31:50.273Z,80.41
2023-03-28T23:34:17.213Z,80.66
2023-03-28T23:36:45.619Z,80.54
2023-03-28T23:39:12.959Z,80.45
2023-03-28T23:41:40.407Z,80.42
2023-03-28T23:44:07.479Z,80.39
2023-03-28T23:46:35.239Z,80.46
2023-03-28T23:49:06.468Z,80.66
2023-03-28T23:51:35.159Z,80.54
2023-03-28T23:54:04.742Z,80.04
2023-03-28T23:56:34.043Z,79.89
2023-03-28T23:59:01.177Z,79.73
